aviador You're here:

KMYL Decoded Metar

MCCALL in ID, USA
Report Time2018-06-23 04:51:00
UTC Time2018-06-23 05:52:40
Flight Rules vfr VFR
Wind290° at 03 kt
W.Decomp.*RWY 34: 1.2 kt HW 2.8 kt LCW
W.Rank290° ranks 15
Current wind is below 290° avg. (6.1)
Visibility9999 m
Phenomena:N/A
Clouds:Broken 070 Hf
Broken 080 Hf
Expected CloudBase > 2,000 ft AGL from Temp-Dew spread
Ceiling7,000 ft
Temp15°C (ISA +10)
Dew Point10°C (72% RH)
AAT14.0°C
QNH1017 hPa
Density Alt6,240 ft
Elevation5,030 ft
Report Wrong Elevation
Raw Report
KMYL 230451Z AUTO 29003KT 10SM BKN070 BKN080 15/10 A3003 RMK AO2
SLP137 T01500100=

Extra information for KMYL:More info

Metar Taf Metar & Taf Last 4 Metars F.Rules Stats Wind Profile Meteogram Temp Stats Airport Information Weather charts Add Link Nearby VenuesMetar ALERT Operation Metar Decoded Social comments

AIRNAV info for KMYL